• Join FlightAware (Why Join?)
  • Login
  • US Flag 
05:00PM EDT


 

Airport Tracker/Info


-or-


 

Live Flight TrackerFlight Track Log ✈ GJS6221 ✈ 18-Aug-2013 ✈ KLGA - KCLT

Flight Track Log - Related Links

Times and Time Zones

All times are in EDT time to prevent confusion due to time zone crossing. See the GJS6221 flight status page for this flight to view local times or setup timezone preferences in your user account.

Time Position Orientation Groundspeed Altitude Reporting Facility
EDT Latitude Longitude Course Direction KTS MPH feet Rate Location/Type
09:35AM 40.7333 -73.8333 246° West 183 211 2,300  Level New York TRACON
09:36AM 40.7500 -73.7833 66° East 236 272 4,500 2,100 Climbing New York TRACON
09:37AM 40.7833 -73.8667 298° West 271 312 6,600 2,400 Climbing New York TRACON
09:38AM 40.7833 -73.9667 270° West 275 316 9,300 2,340 Climbing New York TRACON
09:39AM 40.8000 -74.0500 285° West 295 339 11,100 1,680 Climbing New York TRACON
09:41AM 40.5403 -74.5459 246° West  Level FlightAware Approximate
09:42AM 40.7081 -74.3300 247° West 364 419 14,900  Level New York Center
09:43AM 40.6633 -74.4314 240° Southwest 364 419 17,100 1,920 Climbing New York Center
09:43AM 40.6161 -74.5411 240° Southwest 364 419 18,800 1,560 Climbing New York Center
09:45AM 40.5667 -74.6503 239° Southwest 354 407 20,300 1,320 Climbing New York Center
09:46AM 40.5150 -74.7594 238° Southwest 349 402 21,500 1,080 Climbing New York Center
09:47AM 40.4653 -74.8739 240° Southwest 349 402 22,500 960 Climbing New York Center
09:48AM 40.4092 -74.9903 238° Southwest 360 414 23,500 960 Climbing New York Center
09:49AM 40.3386 -75.0922 228° Southwest 375 432 24,500 960 Climbing New York Center
09:50AM 40.2639 -75.1964 227° Southwest 387 445 25,500 1,080 Climbing New York Center
09:51AM 40.1825 -75.3136 228° Southwest 403 464 26,700 1,080 Climbing New York Center
09:52AM 40.1075 -75.4144 226° Southwest 403 464 27,700 900 Climbing New York Center
09:53AM 40.0325 -75.5178 227° Southwest 403 464 28,500 780 Climbing New York Center
09:54AM 39.9575 -75.6211 227° Southwest 403 464 29,300 780 Climbing New York Center
09:55AM 39.8864 -75.7300 230° Southwest 403 464 30,100 780 Climbing New York Center
09:56AM 39.8147 -75.8436 231° Southwest 403 464 30,900 720 Climbing New York Center
09:57AM 39.6878 -76.0444 231° Southwest 385 443 32,300 720 Climbing Washington Center
09:58AM 39.6186 -76.1519 230° Southwest 385 443 33,200 900 Climbing Washington Center
09:59AM 39.5492 -76.2589 230° Southwest 390 449 34,200 960 Climbing Washington Center
10:00AM 39.4797 -76.3658 230° Southwest 390 449 35,200 840 Climbing Washington Center
10:01AM 39.4167 -76.4672 231° Southwest 384 442 36,000 360 Climbing Washington Center
10:02AM 39.3408 -76.5792 229° Southwest 379 436 36,000  Level Washington Center
10:03AM 39.2731 -76.6856 231° Southwest 384 442 36,000  Level Washington Center
10:04AM 39.2011 -76.7969 230° Southwest 395 455 36,000  Level Washington Center
10:05AM 39.1333 -76.9056 231° Southwest 400 460 36,000  Level Washington Center
10:06AM 39.0633 -77.0111 230° Southwest 400 460 36,000  Level Washington Center
10:07AM 38.9831 -77.1058 223° Southwest 400 460 36,000  Level Washington Center
10:08AM 38.9047 -77.2056 225° Southwest 400 460 36,000  Level Washington Center
10:09AM 38.8367 -77.2944 226° Southwest 395 455 36,000  Level Washington Center
10:10AM 38.7581 -77.3914 224° Southwest 395 455 36,000  Level Washington Center
10:11AM 38.6797 -77.4850 223° Southwest 395 455 36,000  Level Washington Center
10:12AM 38.6028 -77.5867 226° Southwest 395 455 36,000  Level Washington Center
10:13AM 38.5242 -77.6856 225° Southwest 395 455 36,000  Level Washington Center
10:14AM 38.4431 -77.7892 225° Southwest 400 460 36,000  Level Washington Center
10:15AM 38.3619 -77.8900 224° Southwest 400 460 36,000  Level Washington Center
10:16AM 38.2764 -77.9933 223° Southwest 411 473 36,000  Level Washington Center
10:17AM 38.1950 -78.0964 225° Southwest 411 473 36,000  Level Washington Center
10:18AM 38.1114 -78.2017 225° Southwest 411 473 36,000  Level Washington Center
10:19AM 38.0278 -78.3044 224° Southwest 411 473 36,000  Level Washington Center
10:20AM 37.9483 -78.4042 225° Southwest 411 473 36,000 -180 Level Washington Center
10:21AM 37.8647 -78.5064 224° Southwest 411 473 35,700 -660 Descending Washington Center
10:22AM 37.7786 -78.6081 223° Southwest 411 473 34,700 -900 Descending Washington Center
10:23AM 37.6861 -78.7225 224° Southwest 423 487 34,000 -840 Descending Washington Center
10:24AM 37.6000 -78.8239 223° Southwest 428 493 33,100 -900 Descending Washington Center
10:25AM 37.5136 -78.9275 224° Southwest 428 493 32,200 -960 Descending Washington Center
10:26AM 37.4272 -79.0308 224° Southwest 428 493 31,200 -1,020 Descending Washington Center
10:27AM 37.3389 -79.1339 223° Southwest 428 493 30,200 -600 Descending Washington Center
10:28AM 37.2589 -79.2242 222° Southwest 433 498 30,000 -360 Descending Washington Center
10:29AM 37.1644 -79.3083 215° Southwest 428 493 29,500 -780 Descending Washington Center
10:30AM 37.0744 -79.3847 214° Southwest 412 474 28,500 -780 Descending Washington Center
10:31AM 36.9889 -79.4558 214° Southwest 395 455 28,000 -300 Descending Washington Center
10:32AM 36.8967 -79.5292 212° Southwest 390 449 28,000  Level Washington Center
10:33AM 36.7981 -79.6125 214° Southwest 390 449 28,000  Level Washington Center
10:34AM 36.7100 -79.6856 214° Southwest 390 449 28,000  Level Washington Center
10:35AM 36.6219 -79.7561 213° Southwest 390 449 28,000 -900 Level Washington Center
10:38AM 36.3700 -79.9572 213° Southwest 375 432 24,700 -1,200 Descending Atlanta Center
10:39AM 36.2847 -80.0308 215° Southwest 381 438 23,600 -1,080 Descending Atlanta Center
10:40AM 36.2036 -80.0967 213° Southwest 376 433 22,600 -1,260 Descending Atlanta Center
10:41AM 36.1225 -80.1675 215° Southwest 365 420 21,100 -1,500 Descending Atlanta Center
10:42AM 36.0533 -80.2247 214° Southwest 360 414 19,600 -1,500 Descending Atlanta Center
10:43AM 35.9822 -80.2897 216° Southwest 343 395 18,200 -1,320 Descending Atlanta Center
10:44AM 35.9172 -80.3464 215° Southwest 317 365 17,300 -1,260 Descending Atlanta Center
10:45AM 35.8297 -80.4197 214° Southwest 326 375 15,700 -1,260 Descending Atlanta Center
10:46AM 35.7644 -80.4736 214° Southwest 305 351 14,600 -960 Descending Atlanta Center
10:47AM 35.6972 -80.5303 214° Southwest 295 339 13,800 -840 Descending Atlanta Center
10:48AM 35.6342 -80.5842 215° Southwest 295 339 13,000 -840 Descending Atlanta Center
10:49AM 35.5708 -80.6353 213° Southwest 295 339 12,200 -840 Descending Atlanta Center
10:50AM 35.5097 -80.6889 216° Southwest 280 322 11,400 -660 Descending Atlanta Center
10:51AM 35.4467 -80.7400 213° Southwest 280 322 10,900 -480 Descending Atlanta Center
10:52AM 35.3772 -80.7989 215° Southwest 270 311 10,400 -420 Descending Atlanta Center
10:53AM 35.3281 -80.8339 210° Southwest 274 315 10,100 -600 Descending Atlanta Center
10:54AM 35.2508 -80.8367 182° South 228 262 9,200 -960 Descending Atlanta Center
10:55AM 35.1881 -80.8317 176° South 221 254 8,100 -1,140 Descending Atlanta Center
10:56AM 35.1233 -80.8264 176° South 224 258 7,000 -1,140 Descending Atlanta Center
10:57AM 35.0586 -80.8214 176° South 221 254 5,900 -1,140 Descending Atlanta Center
10:59AM 35.0089 -80.8411 198° South 208 239 4,700 -1,140 Descending Atlanta Center
11:00AM 35.0192 -80.9117 280° West 211 243 3,600 -840 Descending Atlanta Center
11:01AM 35.0658 -80.9428 331° Northwest 222 255 3,100 -660 Descending Atlanta Center
11:01AM 35.1139 -80.9461 357° North 179 206 2,400 -780 Descending Atlanta Center
11:02AM 35.1536 -80.9522 353° North 141 162 1,600 -840 Descending Atlanta Center
11:04AM 35.2000 -80.9333 311° West  Level FlightAware Approximate
11:11AM 35.2137 -80.9491 311° West  Level Estimated
11:12AM 35.2137 -80.9491 311° West  Level Estimated